Time;durP1;ratioP1;P1;durP2;ratioP2;P2;SDS_P1;SDS_P2;PMS_P1;PMS_P2;Temp;Humidity;BMP_temperature;BMP_pressure;BME280_temperature;BME280_humidity;BME280_pressure;Samples;Min_cycle;Max_cycle;Signal;HPM_P1;HPM_P2
2023/03/12 00:00:41;;;;;;;6.67;3.30;;;;;;;2.05;100.00;101164.31;5010523;28;20226;-68
2023/03/12 00:03:06;;;;;;;5.47;3.40;;;;;;;1.99;100.00;101171.56;5009193;28;20784;-69
2023/03/12 00:05:32;;;;;;;4.97;3.17;;;;;;;1.94;100.00;101167.91;5013783;28;20191;-68
2023/03/12 00:07:58;;;;;;;8.73;3.30;;;;;;;1.88;100.00;101173.44;5012220;28;20198;-68
2023/03/12 00:10:27;;;;;;;3.13;2.77;;;;;;;1.84;100.00;101173.19;5010247;28;20215;-68
2023/03/12 00:12:52;;;;;;;6.13;2.97;;;;;;;1.77;100.00;101176.13;5009493;28;20210;-69
2023/03/12 00:15:18;;;;;;;7.83;3.30;;;;;;;1.76;100.00;101174.38;5011039;28;20284;-68
2023/03/12 00:17:43;;;;;;;7.17;3.67;;;;;;;1.71;100.00;101181.69;5007913;28;20218;-68
2023/03/12 00:20:09;;;;;;;4.83;3.00;;;;;;;1.67;100.00;101178.88;5012515;28;20215;-68
2023/03/12 00:22:35;;;;;;;6.37;3.60;;;;;;;1.65;100.00;101181.31;5009188;28;20584;-68
2023/03/12 00:25:00;;;;;;;4.90;3.40;;;;;;;1.60;100.00;101172.59;5009181;28;20223;-67
2023/03/12 00:27:26;;;;;;;7.10;3.50;;;;;;;1.56;100.00;101173.19;5009867;28;20549;-68
2023/03/12 00:29:52;;;;;;;5.57;3.77;;;;;;;1.56;100.00;101175.72;5010818;28;20309;-68
2023/03/12 00:32:19;;;;;;;6.23;3.50;;;;;;;1.53;100.00;101178.06;5009113;28;20281;-69
2023/03/12 00:34:53;;;;;;;6.13;3.43;;;;;;;1.52;100.00;101173.78;5003915;28;20190;-69
2023/03/12 00:37:18;;;;;;;5.03;3.23;;;;;;;1.52;100.00;101172.94;5014305;28;20215;-68
2023/03/12 00:39:44;;;;;;;4.60;3.53;;;;;;;1.47;100.00;101174.31;5008527;28;20707;-69
2023/03/12 00:42:09;;;;;;;6.97;3.23;;;;;;;1.40;100.00;101178.13;5010402;28;20230;-68
2023/03/12 00:44:35;;;;;;;6.93;3.87;;;;;;;1.32;100.00;101173.41;5015460;28;20231;-68
2023/03/12 00:47:00;;;;;;;5.37;3.50;;;;;;;1.27;100.00;101177.25;5013115;28;20195;-68
2023/03/12 00:49:26;;;;;;;7.40;3.70;;;;;;;1.27;100.00;101178.16;5016128;28;20652;-67
2023/03/12 00:51:52;;;;;;;7.30;3.97;;;;;;;1.28;100.00;101176.50;5012825;28;20663;-67
2023/03/12 00:54:18;;;;;;;5.90;3.67;;;;;;;1.31;100.00;101176.66;5010996;28;20609;-67
2023/03/12 00:56:45;;;;;;;8.37;4.40;;;;;;;1.31;100.00;101177.56;5014273;28;20218;-67
2023/03/12 00:59:12;;;;;;;9.63;4.50;;;;;;;1.36;100.00;101177.81;5012950;28;20206;-66
2023/03/12 01:01:37;;;;;;;6.47;4.43;;;;;;;1.38;100.00;101177.13;5013208;28;20220;-68
2023/03/12 01:04:03;;;;;;;8.43;5.23;;;;;;;1.43;100.00;101180.84;5011549;28;20285;-67
2023/03/12 01:06:28;;;;;;;5.80;4.93;;;;;;;1.45;100.00;101185.94;5011064;28;20187;-67
2023/03/12 01:08:54;;;;;;;10.87;5.27;;;;;;;1.50;100.00;101187.09;5008396;28;20277;-67
2023/03/12 01:11:21;;;;;;;8.03;5.07;;;;;;;1.52;100.00;101181.34;5014791;28;20211;-68
2023/03/12 01:13:46;;;;;;;9.97;5.60;;;;;;;1.54;100.00;101181.44;5016288;28;20209;-67
2023/03/12 01:16:12;;;;;;;10.77;5.60;;;;;;;1.57;100.00;101192.63;5012656;28;20692;-68
2023/03/12 01:18:38;;;;;;;9.87;5.90;;;;;;;1.65;100.00;101193.06;5010028;28;20257;-66
2023/03/12 01:21:04;;;;;;;9.03;6.03;;;;;;;1.68;100.00;101193.25;5014197;28;20215;-67
2023/03/12 01:23:29;;;;;;;9.00;5.70;;;;;;;1.68;100.00;101188.19;5011918;28;20199;-68
2023/03/12 01:25:55;;;;;;;9.33;5.77;;;;;;;1.67;100.00;101187.34;5014531;28;20199;-67
2023/03/12 01:28:22;;;;;;;8.80;5.27;;;;;;;1.68;100.00;101196.66;5012529;28;20317;-69
2023/03/12 01:30:48;;;;;;;10.03;5.63;;;;;;;1.69;100.00;101192.50;5016420;28;20233;-68
2023/03/12 01:33:15;;;;;;;9.33;5.77;;;;;;;1.70;100.00;101189.19;5010531;28;20229;-68
2023/03/12 01:35:41;;;;;;;8.37;5.47;;;;;;;1.71;100.00;101190.91;5012997;28;20224;-69
2023/03/12 01:38:11;;;;;;;9.07;6.00;;;;;;;1.70;100.00;101190.03;5011851;28;20199;-67
2023/03/12 01:40:36;;;;;;;6.57;5.43;;;;;;;1.69;100.00;101187.44;5016453;28;20233;-68
2023/03/12 01:43:21;;;;;;;7.53;5.37;;;;;;;1.62;100.00;101197.94;5012306;28;20197;-68
2023/03/12 01:46:21;;;;;;;7.37;5.17;;;;;;;1.57;100.00;101194.25;5008652;28;20201;-69
2023/03/12 01:48:52;;;;;;;11.97;6.03;;;;;;;1.52;100.00;101195.63;5009600;28;20205;-68
2023/03/12 01:51:20;;;;;;;8.27;5.70;;;;;;;1.51;100.00;101197.28;5012537;28;20234;-67
2023/03/12 01:53:49;;;;;;;7.80;5.67;;;;;;;1.51;100.00;101204.00;5011239;28;20202;-67
2023/03/12 01:56:18;;;;;;;7.70;5.87;;;;;;;1.47;100.00;101207.09;5013725;28;20207;-67
2023/03/12 01:58:49;;;;;;;7.97;5.73;;;;;;;1.48;100.00;101211.38;5006438;28;20198;-68
2023/03/12 02:01:17;;;;;;;7.40;5.83;;;;;;;1.48;100.00;101208.84;5009183;28;20222;-67
2023/03/12 02:03:46;;;;;;;9.47;6.07;;;;;;;1.48;100.00;101211.38;4992770;28;20289;-67
2023/03/12 02:06:13;;;;;;;7.93;5.73;;;;;;;1.46;100.00;101212.94;5031374;28;20333;-67
2023/03/12 02:08:44;;;;;;;6.53;5.57;;;;;;;1.42;100.00;101227.00;5011578;28;20326;-67
2023/03/12 02:11:11;;;;;;;9.03;5.70;;;;;;;1.45;100.00;101223.78;5010559;28;20222;-68
2023/03/12 02:13:38;;;;;;;9.07;5.80;;;;;;;1.47;100.00;101220.56;5010980;28;20285;-68
2023/03/12 02:16:04;;;;;;;7.70;5.43;;;;;;;1.48;100.00;101222.34;5011404;28;20222;-68
2023/03/12 02:18:30;;;;;;;9.43;6.27;;;;;;;1.46;100.00;101212.94;5014120;28;20191;-70
2023/03/12 02:21:17;;;;;;;10.07;6.23;;;;;;;1.48;100.00;101216.41;5006950;28;20219;-69
2023/03/12 02:23:42;;;;;;;9.70;5.93;;;;;;;1.50;100.00;101215.72;5010718;28;20198;-68
2023/03/12 02:26:09;;;;;;;9.07;6.50;;;;;;;1.51;100.00;101214.09;5011234;28;20281;-68
2023/03/12 02:28:42;;;;;;;7.50;5.90;;;;;;;1.51;100.00;101211.56;5010045;28;20202;-68
2023/03/12 02:31:12;;;;;;;10.63;6.13;;;;;;;1.51;100.00;101216.59;5011804;28;20222;-68
2023/03/12 02:33:37;;;;;;;10.07;5.63;;;;;;;1.54;100.00;101215.13;5013263;28;20748;-69
2023/03/12 02:36:03;;;;;;;11.17;5.50;;;;;;;1.55;100.00;101211.81;5013036;28;20226;-68
2023/03/12 02:38:34;;;;;;;10.07;6.23;;;;;;;1.57;100.00;101214.44;5012873;28;20190;-69
2023/03/12 02:41:14;;;;;;;11.33;6.20;;;;;;;1.57;100.00;101212.81;5011012;28;20211;-68
2023/03/12 02:43:43;;;;;;;15.17;6.53;;;;;;;1.58;100.00;101214.53;4995658;28;20194;-69
2023/03/12 02:46:09;;;;;;;8.80;5.97;;;;;;;1.58;100.00;101211.13;5004514;28;20246;-69
2023/03/12 02:48:35;;;;;;;9.37;5.97;;;;;;;1.55;100.00;101210.94;5014525;28;20203;-68
2023/03/12 02:51:02;;;;;;;13.80;5.87;;;;;;;1.54;100.00;101207.56;5011062;28;20226;-68
2023/03/12 02:53:28;;;;;;;10.53;5.90;;;;;;;1.51;100.00;101212.41;5007885;28;20560;-68
2023/03/12 02:55:54;;;;;;;10.67;6.20;;;;;;;1.46;100.00;101216.31;5010501;28;20202;-68
2023/03/12 02:58:20;;;;;;;12.63;7.10;;;;;;;1.40;100.00;101218.47;5009768;28;20187;-68
2023/03/12 03:00:46;;;;;;;12.40;6.43;;;;;;;1.36;100.00;101219.06;5012009;28;20242;-68
2023/03/12 03:03:12;;;;;;;13.83;6.40;;;;;;;1.30;100.00;101218.69;5011823;28;20281;-68
2023/03/12 03:05:37;;;;;;;11.60;6.53;;;;;;;1.26;100.00;101229.34;5011058;28;20201;-69
2023/03/12 03:08:03;;;;;;;9.10;6.00;;;;;;;1.23;100.00;101221.59;5011320;28;20183;-69
2023/03/12 03:10:29;;;;;;;12.67;6.47;;;;;;;1.22;100.00;101219.84;5006545;28;20740;-69
2023/03/12 03:12:55;;;;;;;9.37;6.57;;;;;;;1.16;100.00;101222.00;5010012;28;20191;-69
2023/03/12 03:15:20;;;;;;;13.20;6.50;;;;;;;1.09;100.00;101224.06;5010581;28;20222;-67
2023/03/12 03:17:46;;;;;;;9.30;6.30;;;;;;;1.04;100.00;101217.81;5009536;28;20211;-70
2023/03/12 03:20:11;;;;;;;8.57;5.90;;;;;;;0.95;100.00;101218.13;5006908;28;20226;-68
2023/03/12 03:22:38;;;;;;;8.90;6.67;;;;;;;0.92;100.00;101217.94;5013863;28;20193;-69
2023/03/12 03:25:05;;;;;;;12.50;6.80;;;;;;;0.92;100.00;101227.16;5005762;28;20222;-69
2023/03/12 03:27:30;;;;;;;10.13;6.23;;;;;;;0.90;100.00;101214.44;5009822;28;20191;-68
2023/03/12 03:29:56;;;;;;;12.00;6.50;;;;;;;0.88;100.00;101218.53;5008948;28;20289;-68
2023/03/12 03:32:21;;;;;;;10.57;6.53;;;;;;;0.82;100.00;101219.78;5006579;28;20290;-69
2023/03/12 03:34:47;;;;;;;13.47;6.60;;;;;;;0.75;100.00;101218.53;5013030;28;20241;-69
2023/03/12 03:37:13;;;;;;;11.03;6.20;;;;;;;0.70;100.00;101219.88;5010499;28;20623;-67
2023/03/12 03:39:38;;;;;;;12.20;6.37;;;;;;;0.65;100.00;101221.25;5010843;28;20212;-69
2023/03/12 03:42:04;;;;;;;8.87;5.80;;;;;;;0.59;100.00;101230.06;5011504;28;20202;-69
2023/03/12 03:44:31;;;;;;;10.93;6.53;;;;;;;0.55;100.00;101225.59;5010146;28;20810;-68
2023/03/12 03:46:57;;;;;;;11.93;7.30;;;;;;;0.51;100.00;101229.56;5011221;28;20194;-67
2023/03/12 03:49:22;;;;;;;11.23;7.10;;;;;;;0.46;100.00;101225.00;5007800;28;20194;-68
2023/03/12 03:51:48;;;;;;;9.83;6.43;;;;;;;0.43;100.00;101224.78;5010418;28;20190;-67
2023/03/12 03:54:19;;;;;;;10.13;6.80;;;;;;;0.38;100.00;101224.50;5009570;28;20208;-68
2023/03/12 03:56:46;;;;;;;11.77;7.80;;;;;;;0.38;100.00;101225.34;5011762;28;20568;-68
2023/03/12 03:59:12;;;;;;;9.70;6.70;;;;;;;0.37;100.00;101231.94;5011008;28;20191;-68
2023/03/12 04:01:39;;;;;;;12.03;7.47;;;;;;;0.26;100.00;101240.44;5008397;28;20218;-68
2023/03/12 04:04:04;;;;;;;9.77;6.80;;;;;;;0.24;100.00;101232.78;5008236;28;20202;-68
2023/03/12 04:06:31;;;;;;;12.90;7.23;;;;;;;0.24;100.00;101227.75;5009419;28;20195;-68
2023/03/12 04:08:57;;;;;;;13.10;7.23;;;;;;;0.22;100.00;101232.69;5012621;28;20285;-68
2023/03/12 04:11:24;;;;;;;14.13;7.70;;;;;;;0.25;100.00;101237.03;5012271;28;20306;-67
2023/03/12 04:13:50;;;;;;;12.23;7.20;;;;;;;0.22;100.00;101229.28;5016171;28;20679;-68
2023/03/12 04:16:19;;;;;;;10.83;7.90;;;;;;;0.18;100.00;101232.38;5012416;28;20329;-70
2023/03/12 04:18:45;;;;;;;12.50;7.10;;;;;;;0.15;100.00;101222.97;5014078;28;20198;-67
2023/03/12 04:21:13;;;;;;;11.13;7.90;;;;;;;0.12;100.00;101231.97;5009408;28;20249;-68
2023/03/12 04:23:40;;;;;;;12.67;8.77;;;;;;;0.07;100.00;101230.78;5016295;28;20195;-69
2023/03/12 04:26:07;;;;;;;10.47;7.83;;;;;;;0.03;100.00;101227.22;5012868;28;20188;-66
2023/03/12 04:28:34;;;;;;;15.57;8.30;;;;;;;-0.02;100.00;101233.59;5010601;28;20660;-69
2023/03/12 04:31:03;;;;;;;13.17;7.67;;;;;;;-0.05;100.00;101230.84;5013804;28;20214;-69
2023/03/12 04:33:37;;;;;;;16.00;8.23;;;;;;;-0.05;100.00;101223.31;5015720;28;20285;-68
2023/03/12 04:36:05;;;;;;;12.40;7.77;;;;;;;-0.06;100.00;101221.56;5007437;28;20195;-67
2023/03/12 04:38:31;;;;;;;14.93;8.23;;;;;;;-0.02;100.00;101228.53;5011818;28;20187;-67
2023/03/12 04:41:03;;;;;;;11.70;7.70;;;;;;;-0.04;100.00;101219.16;5012512;28;20222;-66
2023/03/12 04:43:30;;;;;;;12.63;8.47;;;;;;;-0.07;100.00;101219.81;5014096;28;20191;-67
2023/03/12 04:45:56;;;;;;;11.97;7.70;;;;;;;-0.06;100.00;101216.53;5013524;28;20226;-66
2023/03/12 04:48:22;;;;;;;13.63;8.77;;;;;;;-0.07;100.00;101216.41;5014864;28;20587;-67
2023/03/12 04:50:50;;;;;;;12.87;8.07;;;;;;;-0.09;100.00;101218.81;5015612;28;20211;-66
2023/03/12 04:53:16;;;;;;;13.90;8.80;;;;;;;-0.09;100.00;101215.47;5012142;28;20564;-66
2023/03/12 04:55:41;;;;;;;12.83;8.87;;;;;;;-0.09;100.00;101208.75;5015320;28;20680;-66
2023/03/12 04:58:07;;;;;;;14.07;7.93;;;;;;;-0.11;100.00;101205.28;5013514;28;20577;-67
2023/03/12 05:00:33;;;;;;;10.80;7.00;;;;;;;-0.13;100.00;101205.97;5013637;28;20211;-68
2023/03/12 05:02:58;;;;;;;15.13;8.83;;;;;;;-0.19;100.00;101203.00;5011231;28;20278;-68
2023/03/12 05:05:24;;;;;;;13.00;8.93;;;;;;;-0.25;100.00;101210.16;5013442;28;20187;-68
2023/03/12 05:07:49;;;;;;;13.40;8.40;;;;;;;-0.29;100.00;101203.16;5009879;28;20282;-67
2023/03/12 05:10:15;;;;;;;16.23;9.03;;;;;;;-0.33;100.00;101206.25;5018684;28;20215;-67
2023/03/12 05:12:41;;;;;;;14.23;9.67;;;;;;;-0.31;100.00;101214.78;5008508;28;20349;-70
2023/03/12 05:15:07;;;;;;;12.17;8.67;;;;;;;-0.33;100.00;101208.75;5015429;28;20195;-66
2023/03/12 05:17:32;;;;;;;13.10;8.90;;;;;;;-0.31;100.00;101215.63;5016516;28;20257;-67
2023/03/12 05:19:58;;;;;;;14.70;9.57;;;;;;;-0.32;100.00;101211.38;5014237;28;20223;-67
2023/03/12 05:22:24;;;;;;;17.30;9.47;;;;;;;-0.29;100.00;101218.25;5010981;28;20296;-67
2023/03/12 05:24:49;;;;;;;15.17;9.13;;;;;;;-0.32;100.00;101218.06;5015834;28;20194;-66
2023/03/12 05:27:16;;;;;;;12.67;9.50;;;;;;;-0.30;100.00;101219.03;5009053;28;20238;-68
2023/03/12 05:29:42;;;;;;;13.07;9.33;;;;;;;-0.33;100.00;101218.81;5015579;28;20214;-67
2023/03/12 05:32:07;;;;;;;11.73;8.67;;;;;;;-0.39;100.00;101214.25;5011791;28;20223;-68
2023/03/12 05:34:33;;;;;;;14.03;8.50;;;;;;;-0.38;100.00;101213.50;5013986;28;20282;-67
2023/03/12 05:36:59;;;;;;;17.50;10.47;;;;;;;-0.34;100.00;101209.53;5012991;28;20660;-67
2023/03/12 05:39:26;;;;;;;15.30;10.10;;;;;;;-0.32;100.00;101211.38;5012446;28;20222;-67
2023/03/12 05:41:55;;;;;;;14.80;9.63;;;;;;;-0.29;100.00;101216.63;5012330;28;20283;-67
2023/03/12 05:44:23;;;;;;;17.87;10.20;;;;;;;-0.24;100.00;101214.41;5012501;28;20226;-67
2023/03/12 05:46:52;;;;;;;13.73;9.07;;;;;;;-0.22;100.00;101221.28;5013912;28;20572;-67
2023/03/12 05:49:18;;;;;;;19.73;10.33;;;;;;;-0.22;100.00;101221.28;5012552;28;20290;-67
2023/03/12 05:51:46;;;;;;;13.87;10.03;;;;;;;-0.17;100.00;101227.50;5014178;28;20241;-67
2023/03/12 05:54:11;;;;;;;12.80;9.30;;;;;;;-0.12;100.00;101225.31;5013242;28;20195;-68
2023/03/12 05:56:38;;;;;;;15.77;10.27;;;;;;;-0.11;100.00;101227.03;5015172;28;20215;-66
2023/03/12 05:59:04;;;;;;;14.07;9.60;;;;;;;-0.08;100.00;101213.03;5009040;28;20187;-67
2023/03/12 06:01:31;;;;;;;15.80;9.40;;;;;;;-0.03;100.00;101215.84;5015371;28;20219;-67
2023/03/12 06:03:59;;;;;;;13.73;9.60;;;;;;;-0.04;100.00;101214.97;5009805;28;20207;-69
2023/03/12 06:06:25;;;;;;;17.73;9.73;;;;;;;0.02;100.00;101209.47;5014938;28;20191;-67
2023/03/12 06:08:50;;;;;;;15.13;9.83;;;;;;;0.06;100.00;101211.44;5006657;28;20253;-70
2023/03/12 06:11:16;;;;;;;15.70;10.70;;;;;;;0.10;100.00;101204.19;5011101;28;20250;-68
2023/03/12 06:13:42;;;;;;;12.27;9.30;;;;;;;0.13;100.00;101207.69;5009120;28;20257;-69
2023/03/12 06:16:16;;;;;;;15.70;10.67;;;;;;;0.12;100.00;101214.34;5014333;28;20611;-70
2023/03/12 06:18:42;;;;;;;12.67;9.50;;;;;;;0.10;100.00;101204.19;5008299;28;20289;-66
2023/03/12 06:21:13;;;;;;;14.03;9.37;;;;;;;0.17;100.00;101202.09;5014421;28;20309;-69
2023/03/12 06:23:38;;;;;;;12.07;9.87;;;;;;;0.22;100.00;101201.59;4995329;28;20205;-68
2023/03/12 06:26:06;;;;;;;10.90;8.97;;;;;;;0.23;100.00;101196.66;5012805;28;20202;-69
2023/03/12 06:28:32;;;;;;;13.13;9.00;;;;;;;0.28;100.00;101193.56;5011378;28;20191;-70
2023/03/12 06:30:58;;;;;;;15.23;10.47;;;;;;;0.33;100.00;101200.66;5016199;28;20223;-68
2023/03/12 06:33:23;;;;;;;15.00;9.70;;;;;;;0.30;100.00;101205.50;5012411;28;20207;-70
2023/03/12 06:35:53;;;;;;;13.60;9.33;;;;;;;0.32;100.00;101198.03;5016160;28;20214;-68
2023/03/12 06:38:19;;;;;;;13.73;9.33;;;;;;;0.32;100.00;101200.56;5012806;28;20195;-66
2023/03/12 06:40:53;;;;;;;13.67;9.07;;;;;;;0.34;100.00;101197.38;5016307;28;20287;-67
2023/03/12 06:43:18;;;;;;;15.60;9.30;;;;;;;0.38;100.00;101192.63;5012642;28;20206;-69
2023/03/12 06:45:43;;;;;;;13.17;9.03;;;;;;;0.32;100.00;101189.72;5015779;28;20220;-66
2023/03/12 06:48:09;;;;;;;13.67;9.17;;;;;;;0.42;100.00;101177.72;5013328;28;20199;-70
2023/03/12 06:50:34;;;;;;;11.57;8.67;;;;;;;0.46;100.00;101185.53;5010787;28;20260;-68
2023/03/12 06:53:00;;;;;;;12.37;8.33;;;;;;;0.47;100.00;101183.13;5011600;28;20257;-68
2023/03/12 06:55:25;;;;;;;16.00;9.87;;;;;;;0.44;100.00;101187.09;5010804;28;20199;-69
2023/03/12 06:57:50;;;;;;;14.93;9.43;;;;;;;0.47;100.00;101178.88;5015028;28;20227;-68
2023/03/12 07:00:16;;;;;;;14.27;9.17;;;;;;;0.54;100.00;101181.03;5009921;28;20225;-67
2023/03/12 07:02:41;;;;;;;11.83;9.07;;;;;;;0.60;100.00;101186.44;5015285;28;20201;-68
2023/03/12 07:05:08;;;;;;;12.70;8.40;;;;;;;0.68;100.00;101180.25;5010279;28;20202;-68
2023/03/12 07:07:33;;;;;;;13.27;7.73;;;;;;;0.80;100.00;101181.00;5016405;28;20652;-67
2023/03/12 07:09:58;;;;;;;12.97;7.67;;;;;;;0.74;100.00;101188.19;5008672;28;20230;-69
2023/03/12 07:12:24;;;;;;;12.60;9.13;;;;;;;0.95;100.00;101184.47;5012878;28;20195;-69
2023/03/12 07:14:49;;;;;;;10.23;7.40;;;;;;;1.03;100.00;101181.69;5010639;28;20195;-67
2023/03/12 07:17:15;;;;;;;13.20;8.07;;;;;;;1.07;100.00;101181.09;5013907;28;20678;-66
2023/03/12 07:19:40;;;;;;;11.17;7.70;;;;;;;1.23;100.00;101180.41;5012053;28;20817;-68
2023/03/12 07:22:06;;;;;;;11.87;7.50;;;;;;;1.25;100.00;101187.28;5015326;28;20668;-68
2023/03/12 07:24:31;;;;;;;11.07;7.10;;;;;;;1.31;100.00;101184.22;5011742;28;20334;-68
2023/03/12 07:26:57;;;;;;;12.07;7.00;;;;;;;1.40;100.00;101182.28;5011753;28;21104;-67
2023/03/12 07:29:22;;;;;;;9.17;6.50;;;;;;;1.45;100.00;101178.38;5012174;28;20671;-67
2023/03/12 07:31:48;;;;;;;10.10;6.57;;;;;;;1.41;100.00;101178.97;5015228;28;20193;-68
2023/03/12 07:34:13;;;;;;;11.73;6.57;;;;;;;1.39;100.00;101173.84;5011488;28;20203;-67
2023/03/12 07:36:39;;;;;;;10.27;6.83;;;;;;;1.55;100.00;101168.06;5015676;28;20221;-67
2023/03/12 07:39:04;;;;;;;10.93;6.60;;;;;;;1.67;100.00;101171.31;5012200;28;20202;-67
2023/03/12 07:41:30;;;;;;;9.50;6.70;;;;;;;1.72;100.00;101170.81;5013684;28;20210;-67
2023/03/12 07:43:55;;;;;;;11.63;6.70;;;;;;;1.88;100.00;101167.56;5014266;28;20214;-67
2023/03/12 07:46:21;;;;;;;8.83;6.80;;;;;;;1.86;100.00;101167.47;5015540;28;20213;-67
2023/03/12 07:48:46;;;;;;;10.27;6.13;;;;;;;2.02;100.00;101177.66;5021314;28;20295;-67
2023/03/12 07:51:12;;;;;;;8.50;6.43;;;;;;;2.13;100.00;101170.69;5015637;28;20269;-68
2023/03/12 07:53:37;;;;;;;8.73;5.50;;;;;;;2.09;100.00;101177.22;5019783;28;20205;-67
2023/03/12 07:56:03;;;;;;;13.43;6.07;;;;;;;2.31;100.00;101175.16;5015926;28;20206;-67
2023/03/12 07:58:30;;;;;;;9.37;5.17;;;;;;;2.38;100.00;101168.78;5020861;28;20199;-68
2023/03/12 08:00:55;;;;;;;9.37;5.97;;;;;;;2.42;100.00;101161.47;5025774;28;20214;-67
2023/03/12 08:03:21;;;;;;;7.50;5.70;;;;;;;2.59;100.00;101170.00;5020789;28;20252;-68
2023/03/12 08:05:58;;;;;;;8.53;5.50;;;;;;;2.67;100.00;101169.63;5017239;28;20256;-68
2023/03/12 08:08:23;;;;;;;8.37;5.20;;;;;;;2.83;100.00;101169.69;5018565;28;20198;-68
2023/03/12 08:10:49;;;;;;;10.97;5.70;;;;;;;2.89;100.00;101162.44;5017321;28;20269;-68
2023/03/12 08:13:14;;;;;;;7.03;4.93;;;;;;;2.97;100.00;101155.25;5020709;28;20206;-67
2023/03/12 08:15:40;;;;;;;9.80;5.53;;;;;;;3.04;100.00;101158.19;5017892;28;20204;-66
2023/03/12 08:18:05;;;;;;;8.63;5.10;;;;;;;3.29;100.00;101167.97;5021193;28;20241;-68
2023/03/12 08:20:31;;;;;;;9.63;5.27;;;;;;;3.33;100.00;101154.69;5017919;28;20222;-68
2023/03/12 08:22:56;;;;;;;10.47;6.10;;;;;;;3.46;100.00;101147.84;5015417;28;20227;-68
2023/03/12 08:25:23;;;;;;;9.07;6.13;;;;;;;3.38;100.00;101153.28;5017572;28;20537;-68
2023/03/12 08:27:49;;;;;;;7.90;6.50;;;;;;;3.50;100.00;101138.75;5021429;28;20694;-68
2023/03/12 08:30:15;;;;;;;12.77;6.20;;;;;;;4.01;100.00;101132.09;5016836;28;20222;-67
2023/03/12 08:32:40;;;;;;;8.97;4.70;;;;;;;4.03;100.00;101115.34;5021467;28;20663;-68
2023/03/12 08:35:06;;;;;;;7.77;4.47;;;;;;;4.00;100.00;101116.88;5018082;28;20635;-69
2023/03/12 08:37:31;;;;;;;10.97;4.93;;;;;;;3.61;100.00;101140.16;5020741;28;20222;-68
2023/03/12 08:39:58;;;;;;;12.03;6.57;;;;;;;3.73;100.00;101148.41;5019392;28;20214;-67
2023/03/12 08:42:23;;;;;;;10.30;5.03;;;;;;;3.26;100.00;101145.91;5015880;28;20199;-68
2023/03/12 08:44:49;;;;;;;9.97;6.00;;;;;;;3.37;100.00;101162.56;5018484;28;20203;-68
2023/03/12 08:47:14;;;;;;;11.07;5.20;;;;;;;3.43;100.00;101152.75;5015926;28;20282;-68
2023/03/12 08:49:39;;;;;;;8.17;5.37;;;;;;;3.33;100.00;101145.47;5019503;28;20258;-69
2023/03/12 08:52:05;;;;;;;7.23;4.93;;;;;;;3.39;100.00;101155.00;5015523;28;20301;-68
2023/03/12 08:54:30;;;;;;;7.73;6.03;;;;;;;3.38;100.00;101148.22;5019274;28;20592;-69
2023/03/12 08:56:56;;;;;;;9.27;6.03;;;;;;;3.60;100.00;101141.84;5012295;28;20243;-68
2023/03/12 08:59:22;;;;;;;6.87;5.50;;;;;;;3.79;100.00;101125.91;5016656;28;20203;-68
2023/03/12 09:01:47;;;;;;;5.70;4.70;;;;;;;3.69;100.00;101137.22;5013001;28;20191;-67
2023/03/12 09:04:13;;;;;;;7.47;4.83;;;;;;;3.68;100.00;101127.88;5016102;28;20195;-69
2023/03/12 09:06:38;;;;;;;7.80;5.17;;;;;;;3.85;100.00;101123.66;5013700;28;20607;-68
2023/03/12 09:09:04;;;;;;;7.80;4.97;;;;;;;4.03;100.00;101112.81;5015239;28;20249;-68
2023/03/12 09:11:32;;;;;;;9.53;5.27;;;;;;;3.84;100.00;101094.97;5005648;28;20222;-68
2023/03/12 09:13:58;;;;;;;9.97;4.73;;;;;;;4.15;100.00;101104.94;5005684;28;20202;-67
2023/03/12 09:16:24;;;;;;;8.73;4.50;;;;;;;4.36;100.00;101099.22;5010671;28;20238;-67
2023/03/12 09:18:49;;;;;;;8.37;4.50;;;;;;;4.52;100.00;101083.09;5010394;28;20203;-67
2023/03/12 09:21:15;;;;;;;7.90;5.53;;;;;;;4.41;100.00;101064.84;5010940;28;20254;-67
2023/03/12 09:23:40;;;;;;;7.20;5.20;;;;;;;4.40;100.00;101078.31;5010706;28;20268;-68
2023/03/12 09:26:10;;;;;;;5.40;4.30;;;;;;;4.19;100.00;101078.97;5010635;28;20210;-69
2023/03/12 09:28:36;;;;;;;7.87;4.53;;;;;;;4.17;100.00;101083.94;5009840;28;20345;-69
2023/03/12 09:31:02;;;;;;;7.53;4.60;;;;;;;4.39;100.00;101076.59;5010923;28;20302;-68
2023/03/12 09:33:28;;;;;;;7.37;4.27;;;;;;;4.16;100.00;101061.06;5010619;28;20332;-70
2023/03/12 09:35:57;;;;;;;10.57;5.10;;;;;;;4.18;100.00;101062.03;5008318;28;20282;-70
2023/03/12 09:38:24;;;;;;;6.23;4.33;;;;;;;4.01;100.00;101065.41;5007696;28;20688;-69
2023/03/12 09:40:49;;;;;;;5.97;4.13;;;;;;;4.29;100.00;101043.13;5010295;28;20223;-68
2023/03/12 09:43:38;;;;;;;8.57;4.50;;;;;;;4.65;100.00;101032.16;5010607;28;20201;-69
2023/03/12 09:46:14;;;;;;;6.33;3.90;;;;;;;4.83;100.00;100997.47;5008776;28;20207;-70
2023/03/12 09:48:40;;;;;;;8.57;4.57;;;;;;;4.60;100.00;100968.53;5010393;28;20202;-68
2023/03/12 09:51:32;;;;;;;7.00;4.07;;;;;;;4.42;100.00;100952.50;5005054;28;20219;-69
2023/03/12 09:54:02;;;;;;;6.37;4.30;;;;;;;4.44;100.00;100968.66;5003946;28;20218;-68
2023/03/12 09:56:28;;;;;;;8.53;4.33;;;;;;;4.18;100.00;100971.66;5010093;28;20605;-69
2023/03/12 09:58:55;;;;;;;6.63;4.40;;;;;;;4.55;100.00;100948.88;5010155;28;20198;-69
2023/03/12 10:01:26;;;;;;;6.13;4.13;;;;;;;5.01;100.00;100929.78;5010942;28;20214;-75
2023/03/12 10:04:05;;;;;;;8.13;4.30;;;;;;;5.24;100.00;100876.63;5001530;28;20193;-69
2023/03/12 10:06:51;;;;;;;6.80;4.20;;;;;;;6.38;100.00;100776.91;5008026;28;20546;-71
2023/03/12 10:09:35;;;;;;;10.00;4.47;;;;;;;6.58;100.00;100635.16;5005910;28;20282;-71
2023/03/12 10:12:28;;;;;;;7.20;3.93;;;;;;;6.20;100.00;100625.41;5008680;28;20211;-71
2023/03/12 10:15:24;;;;;;;7.27;3.90;;;;;;;6.24;100.00;100623.03;4987316;28;20230;-71
2023/03/12 10:17:49;;;;;;;6.13;3.80;;;;;;;6.24;100.00;100582.38;5008998;28;20210;-72
2023/03/12 10:20:23;;;;;;;6.30;4.10;;;;;;;6.99;100.00;100512.56;5009155;28;20281;-70
2023/03/12 10:22:53;;;;;;;8.07;3.50;;;;;;;7.55;100.00;100396.09;5008408;28;20196;-70
2023/03/12 10:25:38;;;;;;;7.20;4.23;;;;;;;7.99;100.00;100341.91;5006063;28;20532;-70
2023/03/12 10:28:26;;;;;;;5.80;3.77;;;;;;;7.96;100.00;100321.44;5007781;28;20215;-71
2023/03/12 10:30:59;;;;;;;7.13;3.63;;;;;;;7.45;100.00;100320.28;5009435;28;20241;-70
2023/03/12 10:33:37;;;;;;;7.73;3.20;;;;;;;7.65;100.00;100240.06;5008667;28;20202;-70
2023/03/12 10:36:27;;;;;;;5.70;3.00;;;;;;;7.64;97.88;100184.84;5008700;28;20199;-71
2023/03/12 10:38:52;;;;;;;4.17;2.93;;;;;;;8.03;96.42;100172.03;5009456;28;20191;-70
2023/03/12 10:41:23;;;;;;;6.13;3.60;;;;;;;8.61;90.39;100099.06;5008292;28;20214;-72
2023/03/12 10:43:48;;;;;;;9.27;3.90;;;;;;;8.89;89.15;100087.59;5007848;28;20713;-71
2023/03/12 10:46:34;;;;;;;6.27;3.67;;;;;;;8.22;88.73;100088.25;5010627;28;20195;-69
2023/03/12 10:49:21;;;;;;;6.40;4.27;;;;;;;7.87;96.99;100150.47;5021965;28;20199;-70
2023/03/12 10:52:13;;;;;;;6.67;3.80;;;;;;;7.32;99.22;100205.41;5009225;28;20290;-70
2023/03/12 10:54:40;;;;;;;5.57;3.60;;;;;;;6.95;100.00;100248.66;5009823;28;20202;-70
2023/03/12 10:57:07;;;;;;;8.37;3.37;;;;;;;6.97;100.00;100296.22;5010417;28;20306;-70
2023/03/12 10:59:44;;;;;;;5.87;3.37;;;;;;;6.60;100.00;100275.75;5009534;28;20726;-71
2023/03/12 11:02:35;;;;;;;5.50;2.90;;;;;;;6.49;100.00;100245.78;5007078;28;20610;-70
2023/03/12 11:05:01;;;;;;;5.90;2.90;;;;;;;6.58;100.00;100257.03;5010136;28;20684;-71
2023/03/12 11:07:29;;;;;;;5.53;3.07;;;;;;;6.53;100.00;100250.97;5010557;28;20661;-70
2023/03/12 11:10:07;;;;;;;8.53;3.50;;;;;;;6.31;100.00;100265.66;5004707;28;20235;-70
2023/03/12 11:12:35;;;;;;;7.23;3.13;;;;;;;6.50;100.00;100294.13;5009420;28;20244;-69
2023/03/12 11:15:21;;;;;;;9.30;4.53;;;;;;;6.11;100.00;100265.09;5010347;28;20249;-71
2023/03/12 11:17:47;;;;;;;4.03;3.23;;;;;;;6.19;100.00;100283.97;5009659;28;20896;-71
2023/03/12 11:20:28;;;;;;;10.00;3.83;;;;;;;5.92;100.00;100284.88;5009444;28;20219;-70
2023/03/12 11:22:54;;;;;;;7.57;3.30;;;;;;;5.83;100.00;100308.34;5008212;28;20199;-70